createdAt,value
2018-03-06T00:01:47.011Z,3.50
2018-03-06T00:04:14.620Z,3.50
2018-03-06T00:06:42.240Z,3.50
2018-03-06T00:09:09.892Z,3.40
2018-03-06T00:11:37.487Z,3.40
2018-03-06T00:14:05.053Z,3.30
2018-03-06T00:16:32.686Z,3.30
2018-03-06T00:19:00.296Z,3.20
2018-03-06T00:21:28.672Z,3.10
2018-03-06T00:23:56.283Z,3.10
2018-03-06T00:26:23.885Z,3.10
2018-03-06T00:28:51.503Z,3.10
2018-03-06T00:31:19.100Z,3.10
2018-03-06T00:33:46.718Z,3.10
2018-03-06T00:36:14.323Z,3.10
2018-03-06T00:38:41.948Z,3.10
2018-03-06T00:41:09.577Z,3.00
2018-03-06T00:43:37.219Z,3.00
2018-03-06T00:46:04.828Z,2.90
2018-03-06T00:48:32.411Z,2.80
2018-03-06T00:51:00.027Z,2.70
2018-03-06T00:53:27.624Z,2.70
2018-03-06T00:55:55.247Z,2.50
2018-03-06T00:58:22.864Z,2.50
2018-03-06T01:00:50.688Z,2.40
2018-03-06T01:03:18.309Z,2.30
2018-03-06T01:05:45.886Z,2.30
2018-03-06T01:08:15.116Z,2.10
2018-03-06T01:10:42.706Z,2.10
2018-03-06T01:13:10.341Z,2.10
2018-03-06T01:15:37.936Z,2.00
2018-03-06T01:18:05.526Z,1.90
2018-03-06T01:20:33.139Z,1.80
2018-03-06T01:23:00.741Z,1.70
2018-03-06T01:25:29.120Z,1.60
2018-03-06T01:27:57.484Z,1.60
2018-03-06T01:30:25.875Z,1.50
2018-03-06T01:32:54.890Z,1.50
2018-03-06T01:35:22.520Z,1.50
2018-03-06T01:37:50.108Z,1.60
2018-03-06T01:40:17.716Z,1.60
2018-03-06T01:42:45.335Z,1.60
2018-03-06T01:45:12.942Z,1.60
2018-03-06T01:47:40.542Z,1.60
2018-03-06T01:50:08.139Z,1.60
2018-03-06T01:52:35.773Z,1.60
2018-03-06T01:55:03.407Z,1.70
2018-03-06T01:57:30.987Z,1.50
2018-03-06T01:59:58.642Z,1.50
2018-03-06T02:02:26.292Z,1.50
2018-03-06T02:04:54.675Z,1.40
2018-03-06T02:07:23.036Z,1.50
2018-03-06T02:09:50.659Z,1.40
2018-03-06T02:12:18.245Z,1.50
2018-03-06T02:14:45.875Z,1.50
2018-03-06T02:17:13.464Z,1.50
2018-03-06T02:19:41.054Z,1.50
2018-03-06T02:22:09.430Z,1.50
2018-03-06T02:24:37.788Z,1.50
2018-03-06T02:27:06.079Z,1.40
2018-03-06T02:29:33.656Z,1.40
2018-03-06T02:32:02.050Z,1.50
2018-03-06T02:34:29.673Z,1.40
2018-03-06T02:36:57.268Z,1.40
2018-03-06T02:39:25.656Z,1.40
2018-03-06T02:41:53.243Z,1.30
2018-03-06T02:44:20.831Z,1.40
2018-03-06T02:46:48.449Z,1.40
2018-03-06T02:49:16.054Z,1.40
2018-03-06T02:51:43.673Z,1.30
2018-03-06T02:54:11.267Z,1.30
2018-03-06T02:56:38.904Z,1.30
2018-03-06T02:59:06.508Z,1.30
2018-03-06T03:01:34.086Z,1.30
2018-03-06T03:04:01.704Z,1.20
2018-03-06T03:06:29.290Z,1.20
2018-03-06T03:08:56.912Z,1.20
2018-03-06T03:11:24.528Z,1.30
2018-03-06T03:13:52.873Z,1.30
2018-03-06T03:16:20.495Z,1.20
2018-03-06T03:18:48.085Z,1.20
2018-03-06T03:21:15.715Z,1.20
2018-03-06T03:23:43.289Z,1.20
2018-03-06T03:26:10.906Z,1.20
2018-03-06T03:28:38.526Z,1.10
2018-03-06T03:31:06.118Z,1.10
2018-03-06T03:33:34.520Z,1.10
2018-03-06T03:36:02.114Z,1.00
2018-03-06T03:38:29.756Z,1.00
2018-03-06T03:40:57.345Z,1.00
2018-03-06T03:43:24.951Z,0.90
2018-03-06T03:45:52.571Z,0.80
2018-03-06T03:48:20.166Z,0.60
2018-03-06T03:50:47.857Z,0.70
2018-03-06T03:53:15.456Z,0.70
2018-03-06T03:55:43.059Z,0.70
2018-03-06T03:58:10.694Z,0.70
2018-03-06T04:00:39.083Z,0.70
2018-03-06T04:03:07.456Z,0.80
2018-03-06T04:05:35.857Z,0.80
2018-03-06T04:08:03.469Z,0.80
2018-03-06T04:10:31.092Z,0.70
2018-03-06T04:12:58.708Z,0.70
2018-03-06T04:15:26.337Z,0.70
2018-03-06T04:17:53.958Z,0.80
2018-03-06T04:20:21.632Z,0.70
2018-03-06T04:22:49.289Z,0.70
2018-03-06T04:25:16.909Z,0.70
2018-03-06T04:27:44.503Z,0.70
2018-03-06T04:30:12.883Z,0.70
2018-03-06T04:32:40.466Z,0.70
2018-03-06T04:35:08.101Z,0.70
2018-03-06T04:37:36.463Z,0.70
2018-03-06T04:40:04.088Z,0.70
2018-03-06T04:42:31.726Z,0.70
2018-03-06T04:44:59.347Z,0.70
2018-03-06T04:47:27.743Z,0.70
2018-03-06T04:49:55.358Z,0.60
2018-03-06T04:52:22.972Z,0.60
2018-03-06T04:54:50.611Z,0.50
2018-03-06T04:57:18.958Z,0.50
2018-03-06T04:59:46.569Z,0.40
2018-03-06T05:02:14.192Z,0.50
2018-03-06T05:04:41.830Z,0.40
2018-03-06T05:07:09.430Z,0.50
2018-03-06T05:09:37.805Z,0.50
2018-03-06T05:12:05.442Z,0.50
2018-03-06T05:14:33.049Z,0.50
2018-03-06T05:17:00.669Z,0.50
2018-03-06T05:19:28.301Z,0.50
2018-03-06T05:21:55.885Z,0.50
2018-03-06T05:24:23.499Z,0.50
2018-03-06T05:26:51.134Z,0.50
2018-03-06T05:29:18.698Z,0.50
2018-03-06T05:31:46.313Z,0.50
2018-03-06T05:34:13.920Z,0.50
2018-03-06T05:36:42.318Z,0.50
2018-03-06T05:39:09.956Z,0.50
2018-03-06T05:41:38.336Z,0.50
2018-03-06T05:44:07.525Z,0.50
2018-03-06T05:46:35.929Z,0.60
2018-03-06T05:49:03.567Z,0.50
2018-03-06T05:51:31.154Z,0.60
2018-03-06T05:53:58.783Z,0.60
2018-03-06T05:56:26.373Z,0.60
2018-03-06T05:58:54.042Z,0.60
2018-03-06T06:01:22.509Z,0.60
2018-03-06T06:03:50.864Z,0.60
2018-03-06T06:06:18.479Z,0.50
2018-03-06T06:08:46.127Z,0.60
2018-03-06T06:11:13.758Z,0.60
2018-03-06T06:13:42.141Z,0.50
2018-03-06T06:16:09.724Z,0.50
2018-03-06T06:18:38.089Z,0.60
2018-03-06T06:21:06.475Z,0.70
2018-03-06T06:23:34.824Z,0.70
2018-03-06T06:26:02.458Z,0.70
2018-03-06T06:28:30.045Z,0.80
2018-03-06T06:30:57.637Z,0.80
2018-03-06T06:33:25.990Z,1.00
2018-03-06T06:35:53.573Z,1.00
2018-03-06T06:38:21.933Z,1.20
2018-03-06T06:40:49.528Z,1.20
2018-03-06T06:43:17.895Z,1.30
2018-03-06T06:45:45.516Z,1.30
2018-03-06T06:48:13.083Z,1.40
2018-03-06T06:50:40.688Z,1.60
2018-03-06T06:53:09.125Z,1.60
2018-03-06T06:55:36.711Z,1.70
2018-03-06T06:58:04.291Z,1.80
2018-03-06T07:00:32.668Z,1.90
2018-03-06T07:03:01.007Z,1.90
2018-03-06T07:05:28.600Z,1.90
2018-03-06T07:07:56.943Z,2.10
2018-03-06T07:10:24.566Z,2.10
2018-03-06T07:12:52.141Z,2.30
2018-03-06T07:15:19.704Z,2.30
2018-03-06T07:17:47.310Z,2.50
2018-03-06T07:20:15.652Z,2.70
2018-03-06T07:22:43.236Z,2.80
2018-03-06T07:25:10.825Z,2.80
2018-03-06T07:27:39.157Z,3.00
2018-03-06T07:30:06.754Z,3.00
2018-03-06T07:32:35.112Z,3.20
2018-03-06T07:35:02.707Z,3.20
2018-03-06T07:37:30.271Z,3.30
2018-03-06T07:39:58.790Z,3.50
2018-03-06T07:42:26.360Z,3.50
2018-03-06T07:44:53.927Z,3.60
2018-03-06T07:47:21.543Z,3.60
2018-03-06T07:49:49.121Z,3.70
2018-03-06T07:52:16.700Z,3.80
2018-03-06T07:54:44.296Z,3.90
2018-03-06T07:57:11.887Z,4.10
2018-03-06T07:59:39.495Z,4.10
2018-03-06T08:02:07.112Z,4.20
2018-03-06T08:04:34.720Z,4.30
2018-03-06T08:07:02.313Z,4.40
2018-03-06T08:09:29.884Z,4.40
2018-03-06T08:11:57.493Z,4.50
2018-03-06T08:14:25.083Z,4.80
2018-03-06T08:16:52.681Z,4.90
2018-03-06T08:19:20.290Z,5.10
2018-03-06T08:21:48.654Z,5.40
2018-03-06T08:24:17.056Z,5.50
2018-03-06T08:26:45.396Z,5.50
2018-03-06T08:29:12.973Z,5.50
2018-03-06T08:31:40.558Z,5.70
2018-03-06T08:34:08.922Z,5.90
2018-03-06T08:36:37.281Z,5.90
2018-03-06T08:39:04.864Z,5.90
2018-03-06T08:41:33.228Z,6.20
2018-03-06T08:44:00.795Z,6.20
2018-03-06T08:46:29.139Z,6.30
2018-03-06T08:48:56.760Z,6.30
2018-03-06T08:51:24.341Z,6.40
2018-03-06T08:53:51.895Z,6.40
2018-03-06T08:56:19.489Z,6.40
2018-03-06T08:58:47.095Z,6.40
2018-03-06T09:01:15.659Z,6.50
2018-03-06T09:03:44.003Z,6.50
2018-03-06T09:06:11.615Z,6.50
2018-03-06T09:08:39.980Z,6.70
2018-03-06T09:11:08.313Z,6.80
2018-03-06T09:13:35.899Z,6.80
2018-03-06T09:16:03.483Z,6.70
2018-03-06T09:18:31.821Z,6.90
2018-03-06T09:20:59.411Z,6.90
2018-03-06T09:23:27.007Z,7.10
2018-03-06T09:25:54.574Z,7.10
2018-03-06T09:28:22.135Z,7.20
2018-03-06T09:30:49.726Z,7.40
2018-03-06T09:33:17.325Z,7.40
2018-03-06T09:35:45.669Z,7.60
2018-03-06T09:38:13.259Z,7.50
2018-03-06T09:40:41.579Z,7.70
2018-03-06T09:43:09.146Z,7.70
2018-03-06T09:45:36.729Z,7.90
2018-03-06T09:48:04.318Z,8.10
2018-03-06T09:50:32.671Z,8.10
2018-03-06T09:53:00.273Z,8.10
2018-03-06T09:55:27.851Z,8.00
2018-03-06T09:57:55.418Z,8.10
2018-03-06T10:00:23.017Z,8.30
2018-03-06T10:02:50.588Z,8.60
2018-03-06T10:05:18.933Z,9.10
2018-03-06T10:07:46.481Z,9.00
2018-03-06T10:10:14.088Z,9.30
2018-03-06T10:12:42.420Z,9.50
2018-03-06T10:15:10.001Z,9.50
2018-03-06T10:17:37.557Z,9.60
2018-03-06T10:20:05.173Z,9.60
2018-03-06T10:22:32.742Z,9.70
2018-03-06T10:25:00.320Z,9.70
2018-03-06T10:27:27.906Z,9.70
2018-03-06T10:29:55.468Z,9.60
2018-03-06T10:32:23.079Z,9.70
2018-03-06T10:34:50.670Z,9.70
2018-03-06T10:37:18.254Z,9.90
2018-03-06T10:39:45.845Z,10.10
2018-03-06T10:42:14.185Z,9.90
2018-03-06T10:44:41.788Z,9.90
2018-03-06T10:47:09.382Z,10.00
2018-03-06T10:49:36.949Z,10.10
2018-03-06T10:52:04.552Z,10.30
2018-03-06T10:54:32.908Z,10.60
2018-03-06T10:57:00.503Z,10.60
2018-03-06T10:59:28.105Z,10.10
2018-03-06T11:01:56.607Z,10.20
2018-03-06T11:04:24.252Z,10.40
2018-03-06T11:06:51.831Z,10.50
2018-03-06T11:09:19.384Z,10.50
2018-03-06T11:11:47.652Z,10.50
2018-03-06T11:14:15.259Z,10.40
2018-03-06T11:16:42.857Z,10.40
2018-03-06T11:19:10.457Z,10.50
2018-03-06T11:21:38.030Z,10.60
2018-03-06T11:24:06.378Z,11.10
2018-03-06T11:26:33.938Z,11.10
2018-03-06T11:29:01.538Z,11.20
2018-03-06T11:31:29.116Z,11.30
2018-03-06T11:33:56.701Z,11.50
2018-03-06T11:36:24.254Z,11.60
2018-03-06T11:38:52.726Z,11.70
2018-03-06T11:41:20.355Z,11.80
2018-03-06T11:43:48.699Z,11.80
2018-03-06T11:46:16.264Z,11.80
2018-03-06T11:48:43.849Z,11.80
2018-03-06T11:51:12.198Z,11.80
2018-03-06T11:53:39.781Z,11.80
2018-03-06T11:56:08.110Z,12.10
2018-03-06T11:58:35.694Z,12.10
2018-03-06T12:01:03.301Z,11.90
2018-03-06T12:03:30.884Z,11.90
2018-03-06T12:05:58.466Z,12.10
2018-03-06T12:08:26.054Z,12.20
2018-03-06T12:10:54.433Z,12.60
2018-03-06T12:13:22.768Z,12.60
2018-03-06T12:15:50.351Z,12.60
2018-03-06T12:18:17.934Z,12.60
2018-03-06T12:20:46.287Z,12.70
2018-03-06T12:23:13.868Z,12.60
2018-03-06T12:25:42.237Z,12.70
2018-03-06T12:28:09.801Z,12.70
2018-03-06T12:30:37.382Z,12.70
2018-03-06T12:33:05.743Z,12.20
2018-03-06T12:35:33.334Z,12.20
2018-03-06T12:38:00.919Z,12.20
2018-03-06T12:40:28.511Z,12.10
2018-03-06T12:42:56.141Z,12.30
2018-03-06T12:45:23.721Z,12.60
2018-03-06T12:47:51.293Z,12.60
2018-03-06T12:50:18.887Z,12.60
2018-03-06T12:52:46.463Z,12.50
2018-03-06T12:55:14.041Z,12.30
2018-03-06T12:57:41.645Z,12.30
2018-03-06T13:00:09.216Z,12.60
2018-03-06T13:02:37.593Z,12.70
2018-03-06T13:05:05.946Z,12.50
2018-03-06T13:07:33.510Z,12.50
2018-03-06T13:10:01.105Z,12.70
2018-03-06T13:12:28.679Z,12.70
2018-03-06T13:14:56.299Z,12.50
2018-03-06T13:17:24.639Z,12.30
2018-03-06T13:19:52.213Z,12.20
2018-03-06T13:22:19.822Z,12.20
2018-03-06T13:24:47.390Z,12.30
2018-03-06T13:27:15.017Z,12.30
2018-03-06T13:29:43.353Z,12.40
2018-03-06T13:32:10.944Z,12.40
2018-03-06T13:34:38.542Z,12.40
2018-03-06T13:37:06.878Z,12.50
2018-03-06T13:39:34.473Z,12.50
2018-03-06T13:42:02.836Z,12.50
2018-03-06T13:44:30.444Z,12.50
2018-03-06T13:46:58.032Z,12.40
2018-03-06T13:49:25.633Z,12.20
2018-03-06T13:51:53.977Z,12.20
2018-03-06T13:54:21.631Z,12.20
2018-03-06T13:56:49.208Z,12.20
2018-03-06T13:59:17.793Z,12.20
2018-03-06T14:01:45.392Z,12.20
2018-03-06T14:04:12.991Z,12.30
2018-03-06T14:06:40.568Z,12.30
2018-03-06T14:09:08.153Z,12.30
2018-03-06T14:11:36.519Z,12.40
2018-03-06T14:14:04.087Z,12.40
2018-03-06T14:16:32.432Z,12.20
2018-03-06T14:19:00.029Z,12.20
2018-03-06T14:21:28.397Z,12.00
2018-03-06T14:23:56.005Z,12.00
2018-03-06T14:26:23.577Z,11.90
2018-03-06T14:28:51.146Z,12.00
2018-03-06T14:31:18.751Z,12.10
2018-03-06T14:33:47.089Z,12.40
2018-03-06T14:36:14.703Z,12.30
2018-03-06T14:38:42.316Z,12.40
2018-03-06T14:41:10.887Z,12.40
2018-03-06T14:43:38.520Z,12.20
2018-03-06T14:46:06.100Z,12.10
2018-03-06T14:48:33.672Z,12.10
2018-03-06T14:51:01.276Z,12.00
2018-03-06T14:53:29.646Z,11.80
2018-03-06T14:55:57.980Z,11.90
2018-03-06T14:58:25.560Z,11.90
2018-03-06T15:00:54.248Z,11.90
2018-03-06T15:03:21.814Z,11.90
2018-03-06T15:05:49.384Z,11.90
2018-03-06T15:08:17.001Z,11.70
2018-03-06T15:10:44.562Z,11.60
2018-03-06T15:13:12.136Z,11.60
2018-03-06T15:15:39.774Z,11.50
2018-03-06T15:18:07.762Z,11.40
2018-03-06T15:20:35.332Z,11.40
2018-03-06T15:23:02.974Z,11.40
2018-03-06T15:25:30.555Z,11.40
2018-03-06T15:27:58.117Z,11.40
2018-03-06T15:30:25.715Z,11.40
2018-03-06T15:32:53.301Z,11.40
2018-03-06T15:35:20.964Z,11.50
2018-03-06T15:37:48.630Z,11.50
2018-03-06T15:40:16.306Z,11.40
2018-03-06T15:42:43.986Z,11.40
2018-03-06T15:45:11.609Z,11.30
2018-03-06T15:47:39.251Z,11.30
2018-03-06T15:50:06.895Z,11.20
2018-03-06T15:52:35.254Z,11.20
2018-03-06T15:55:02.855Z,11.20
2018-03-06T15:57:30.514Z,11.10
2018-03-06T15:59:58.140Z,11.00
2018-03-06T16:02:25.743Z,10.90
2018-03-06T16:04:53.372Z,10.80
2018-03-06T16:07:21.793Z,10.70
2018-03-06T16:09:49.441Z,10.60
2018-03-06T16:12:17.127Z,10.60
2018-03-06T16:14:44.723Z,10.60
2018-03-06T16:17:12.351Z,10.50
2018-03-06T16:19:40.014Z,10.60
2018-03-06T16:22:07.677Z,10.50
2018-03-06T16:24:35.287Z,10.60
2018-03-06T16:27:02.888Z,10.50
2018-03-06T16:29:30.540Z,10.60
2018-03-06T16:31:58.192Z,10.60
2018-03-06T16:34:25.804Z,10.50
2018-03-06T16:36:53.412Z,10.40
2018-03-06T16:39:21.047Z,10.40
2018-03-06T16:41:48.651Z,10.30
2018-03-06T16:44:16.259Z,10.30
2018-03-06T16:46:43.913Z,10.30
2018-03-06T16:49:12.518Z,10.20
2018-03-06T16:51:40.909Z,10.10
2018-03-06T16:54:09.345Z,10.10
2018-03-06T16:56:36.975Z,10.10
2018-03-06T16:59:04.582Z,10.00
2018-03-06T17:01:32.222Z,9.90
2018-03-06T17:03:59.815Z,9.70
2018-03-06T17:06:27.474Z,9.40
2018-03-06T17:08:55.085Z,9.20
2018-03-06T17:11:22.692Z,9.10
2018-03-06T17:13:50.362Z,8.90
2018-03-06T17:16:18.736Z,8.50
2018-03-06T17:18:46.353Z,8.50
2018-03-06T17:21:13.981Z,8.40
2018-03-06T17:23:41.622Z,8.20
2018-03-06T17:26:09.992Z,7.90
2018-03-06T17:28:37.621Z,7.80
2018-03-06T17:31:05.276Z,7.70
2018-03-06T17:33:32.883Z,7.50
2018-03-06T17:36:00.493Z,7.40
2018-03-06T17:38:28.129Z,7.20
2018-03-06T17:40:55.730Z,7.20
2018-03-06T17:43:23.356Z,7.10
2018-03-06T17:45:50.990Z,7.10
2018-03-06T17:48:19.381Z,6.70
2018-03-06T17:50:47.739Z,6.70
2018-03-06T17:53:16.096Z,6.70
2018-03-06T17:55:43.699Z,6.60
2018-03-06T17:58:12.141Z,6.50
2018-03-06T18:00:39.763Z,6.40
2018-03-06T18:03:07.362Z,6.40
2018-03-06T18:05:35.052Z,6.40
2018-03-06T18:08:03.434Z,6.30
2018-03-06T18:10:31.806Z,6.20
2018-03-06T18:12:59.469Z,6.20
2018-03-06T18:15:27.924Z,6.10
2018-03-06T18:17:55.537Z,6.10
2018-03-06T18:20:23.184Z,6.10
2018-03-06T18:22:51.568Z,6.10
2018-03-06T18:25:19.179Z,6.10
2018-03-06T18:27:46.846Z,6.10
2018-03-06T18:30:14.469Z,6.10
2018-03-06T18:32:43.004Z,6.10
2018-03-06T18:35:10.674Z,6.10
2018-03-06T18:37:38.300Z,6.10
2018-03-06T18:40:05.908Z,6.00
2018-03-06T18:42:33.559Z,5.80
2018-03-06T18:45:01.171Z,5.70
2018-03-06T18:47:29.799Z,5.80
2018-03-06T18:50:04.033Z,5.80
2018-03-06T18:52:32.399Z,5.50
2018-03-06T18:55:00.772Z,5.30
2018-03-06T18:57:28.485Z,5.30
2018-03-06T19:03:10.394Z,5.20
2018-03-06T19:09:00.571Z,5.10
2018-03-06T19:11:28.944Z,5.00
2018-03-06T19:13:57.347Z,5.00
2018-03-06T19:16:24.964Z,4.90
2018-03-06T19:18:52.603Z,4.80
2018-03-06T19:21:20.205Z,4.70
2018-03-06T19:23:48.578Z,4.80
2018-03-06T19:26:16.245Z,4.70
2018-03-06T19:28:44.623Z,4.80
2018-03-06T19:31:12.218Z,4.80
2018-03-06T19:33:39.969Z,4.70
2018-03-06T19:36:07.597Z,4.70
2018-03-06T19:38:36.040Z,4.70
2018-03-06T19:41:03.705Z,4.70
2018-03-06T19:43:31.294Z,4.70
2018-03-06T19:45:58.883Z,4.70
2018-03-06T19:48:27.234Z,4.70
2018-03-06T19:50:54.812Z,4.60
2018-03-06T19:53:23.177Z,4.80
2018-03-06T19:55:50.755Z,4.80
2018-03-06T19:58:19.103Z,4.80
2018-03-06T20:00:47.463Z,4.80
2018-03-06T20:03:15.328Z,4.80
2018-03-06T20:05:42.909Z,4.70
2018-03-06T20:08:10.484Z,4.70
2018-03-06T20:10:38.063Z,4.80
2018-03-06T20:13:06.399Z,4.70
2018-03-06T20:15:33.996Z,4.70
2018-03-06T20:18:02.331Z,4.60
2018-03-06T20:20:29.947Z,4.60
2018-03-06T20:22:58.279Z,4.60
2018-03-06T20:25:31.702Z,4.60
2018-03-06T20:28:00.076Z,4.80
2018-03-06T20:30:33.258Z,4.80
2018-03-06T20:33:06.554Z,4.80
2018-03-06T20:35:34.159Z,4.90
2018-03-06T20:38:01.747Z,4.90
2018-03-06T20:40:34.271Z,4.80
2018-03-06T20:43:02.648Z,4.90
2018-03-06T20:45:36.634Z,5.00
2018-03-06T20:48:04.253Z,5.00
2018-03-06T20:50:31.856Z,5.00
2018-03-06T20:53:05.049Z,5.10
2018-03-06T20:55:32.682Z,5.20
2018-03-06T20:58:00.250Z,5.10
2018-03-06T21:00:27.902Z,5.00
2018-03-06T21:02:55.499Z,5.10
2018-03-06T21:05:23.102Z,5.10
2018-03-06T21:07:50.673Z,5.10
2018-03-06T21:10:18.266Z,5.20
2018-03-06T21:12:45.878Z,5.20
2018-03-06T21:15:13.472Z,5.30
2018-03-06T21:17:41.096Z,5.40
2018-03-06T21:20:08.959Z,5.40
2018-03-06T21:22:37.303Z,5.40
2018-03-06T21:25:04.941Z,5.40
2018-03-06T21:27:32.522Z,5.50
2018-03-06T21:30:00.099Z,5.60
2018-03-06T21:32:28.443Z,5.70
2018-03-06T21:34:56.062Z,5.70
2018-03-06T21:37:23.634Z,5.70
2018-03-06T21:39:51.214Z,5.70
2018-03-06T21:42:19.575Z,5.80
2018-03-06T21:44:47.164Z,5.70
2018-03-06T21:47:14.734Z,5.90
2018-03-06T21:49:42.359Z,6.00
2018-03-06T21:52:09.945Z,6.10
2018-03-06T21:54:37.510Z,6.10
2018-03-06T21:57:05.113Z,6.00
2018-03-06T21:59:32.712Z,6.00
2018-03-06T22:02:00.288Z,6.10
2018-03-06T22:04:27.901Z,6.20
2018-03-06T22:06:55.497Z,6.20
2018-03-06T22:09:23.088Z,6.20
2018-03-06T22:11:50.712Z,6.20
2018-03-06T22:14:18.291Z,6.20
2018-03-06T22:16:46.642Z,6.20
2018-03-06T22:19:14.245Z,6.20
2018-03-06T22:21:41.805Z,6.10
2018-03-06T22:24:09.374Z,6.00
2018-03-06T22:26:37.733Z,6.10
2018-03-06T22:29:05.336Z,6.00
2018-03-06T22:31:32.934Z,6.10
2018-03-06T22:34:00.517Z,6.20
2018-03-06T22:36:28.088Z,6.20
2018-03-06T22:38:55.654Z,6.20
2018-03-06T22:41:23.247Z,6.20
2018-03-06T22:43:50.830Z,6.20
2018-03-06T22:46:18.436Z,6.20
2018-03-06T22:48:46.780Z,6.20
2018-03-06T22:51:14.361Z,6.20
2018-03-06T22:53:41.946Z,6.20
2018-03-06T22:56:10.279Z,6.30
2018-03-06T22:58:38.659Z,6.30
2018-03-06T23:01:06.268Z,6.30
2018-03-06T23:03:34.608Z,6.30
2018-03-06T23:06:02.204Z,6.30
2018-03-06T23:08:30.593Z,6.20
2018-03-06T23:10:58.177Z,6.20
2018-03-06T23:13:25.747Z,6.20
2018-03-06T23:15:53.355Z,6.20
2018-03-06T23:18:21.689Z,6.10
2018-03-06T23:20:49.299Z,6.10
2018-03-06T23:23:17.641Z,6.10
2018-03-06T23:25:45.253Z,6.10
2018-03-06T23:28:12.842Z,6.10
2018-03-06T23:30:40.423Z,6.10
2018-03-06T23:33:08.011Z,6.10
2018-03-06T23:35:36.334Z,6.00
2018-03-06T23:38:03.922Z,6.00
2018-03-06T23:40:31.506Z,5.90
2018-03-06T23:42:59.902Z,5.80
2018-03-06T23:45:27.484Z,5.80
2018-03-06T23:47:55.050Z,5.90
2018-03-06T23:50:22.635Z,5.90
2018-03-06T23:52:50.239Z,5.80
2018-03-06T23:55:17.823Z,5.80
2018-03-06T23:57:45.390Z,5.80
